createdAt,value
2022-10-11T00:02:54.553Z,28.60
2022-10-11T00:05:58.500Z,29.17
2022-10-11T00:09:02.647Z,28.95
2022-10-11T00:12:06.578Z,29.23
2022-10-11T00:15:14.169Z,34.08
2022-10-11T00:18:17.491Z,36.25
2022-10-11T00:21:22.660Z,34.20
2022-10-11T00:24:25.908Z,34.05
2022-10-11T00:27:29.764Z,42.15
2022-10-11T00:30:33.713Z,33.60
2022-10-11T00:33:38.210Z,35.22
2022-10-11T00:36:41.955Z,29.52
2022-10-11T00:39:46.606Z,23.88
2022-10-11T00:42:50.267Z,20.77
2022-10-11T00:46:01.380Z,19.27
2022-10-11T00:49:43.741Z,18.08
2022-10-11T00:52:53.793Z,19.70
2022-10-11T00:56:06.652Z,21.52
2022-10-11T00:59:20.368Z,22.02
2022-10-11T01:02:25.472Z,25.73
2022-10-11T01:05:30.173Z,26.83
2022-10-11T01:08:34.656Z,24.90
2022-10-11T01:11:42.149Z,25.17
2022-10-11T01:15:00.565Z,25.58
2022-10-11T01:18:25.406Z,27.05
2022-10-11T01:21:58.298Z,33.33
2022-10-11T01:25:19.933Z,37.83
2022-10-11T01:28:28.756Z,33.45
2022-10-11T01:31:40.709Z,31.25
2022-10-11T01:35:02.805Z,28.52
2022-10-11T01:38:18.106Z,27.33
2022-10-11T01:41:43.589Z,29.52
2022-10-11T01:44:50.054Z,33.92
2022-10-11T01:48:04.540Z,43.08
2022-10-11T01:51:10.211Z,41.58
2022-10-11T01:54:50.193Z,38.22
2022-10-11T01:58:42.824Z,30.27
2022-10-11T02:01:46.419Z,29.02
2022-10-11T02:04:55.220Z,27.60
2022-10-11T02:08:23.724Z,25.95
2022-10-11T02:11:34.678Z,25.63
2022-10-11T02:14:42.091Z,26.10
2022-10-11T02:17:51.018Z,27.13
2022-10-11T02:20:56.395Z,24.98
2022-10-11T02:24:14.894Z,29.92
2022-10-11T02:27:23.099Z,35.13
2022-10-11T02:30:27.182Z,34.42
2022-10-11T02:34:02.764Z,36.28
2022-10-11T02:37:29.834Z,36.00
2022-10-11T02:40:59.236Z,31.60
2022-10-11T02:44:13.926Z,31.73
2022-10-11T02:47:17.661Z,32.33
2022-10-11T02:50:22.642Z,32.40
2022-10-11T02:53:27.475Z,32.08
2022-10-11T02:56:30.779Z,28.08
2022-10-11T02:59:33.743Z,28.77
2022-10-11T03:02:37.511Z,23.05
2022-10-11T03:05:42.035Z,19.48
2022-10-11T03:08:44.907Z,17.23
2022-10-11T03:11:47.766Z,19.27
2022-10-11T03:14:51.657Z,19.63
2022-10-11T03:17:58.343Z,20.08
2022-10-11T03:21:02.649Z,23.63
2022-10-11T03:24:06.490Z,27.63
2022-10-11T03:27:10.080Z,23.67
2022-10-11T03:30:17.895Z,25.58
2022-10-11T03:33:22.027Z,25.40
2022-10-11T03:36:25.622Z,21.10
2022-10-11T03:39:29.206Z,21.75
2022-10-11T03:42:32.801Z,21.77
2022-10-11T03:45:37.243Z,22.60
2022-10-11T03:48:40.211Z,19.40
2022-10-11T03:51:43.146Z,18.67
2022-10-11T03:54:46.509Z,18.05
2022-10-11T03:57:49.471Z,15.30
2022-10-11T04:00:54.806Z,13.68
2022-10-11T04:03:58.472Z,13.25
2022-10-11T04:07:01.781Z,15.50
2022-10-11T04:10:04.920Z,18.10
2022-10-11T04:13:08.800Z,18.70
2022-10-11T04:16:12.501Z,14.52
2022-10-11T04:19:16.900Z,19.05
2022-10-11T04:22:20.145Z,19.55
2022-10-11T04:25:24.867Z,16.08
2022-10-11T04:28:28.523Z,16.15
2022-10-11T04:31:32.161Z,18.90
2022-10-11T04:34:35.033Z,17.45
2022-10-11T04:37:38.521Z,16.63
2022-10-11T04:40:42.251Z,15.05
2022-10-11T04:43:45.435Z,14.75
2022-10-11T04:46:49.048Z,15.32
2022-10-11T04:49:52.037Z,15.00
2022-10-11T04:52:55.056Z,14.07
2022-10-11T04:56:01.648Z,13.70
2022-10-11T04:59:05.489Z,13.10
2022-10-11T05:02:08.828Z,15.70
2022-10-11T05:05:17.825Z,14.57
2022-10-11T05:08:24.055Z,14.60
2022-10-11T05:11:27.357Z,13.60
2022-10-11T05:14:31.310Z,15.48
2022-10-11T05:17:34.535Z,16.52
2022-10-11T05:20:38.657Z,16.08
2022-10-11T05:23:42.282Z,14.18
2022-10-11T05:26:46.737Z,13.40
2022-10-11T05:29:50.234Z,15.80
2022-10-11T05:32:54.244Z,13.27
2022-10-11T05:35:57.220Z,11.63
2022-10-11T05:39:00.571Z,9.35
2022-10-11T05:42:07.645Z,10.27
2022-10-11T05:45:13.233Z,8.52
2022-10-11T05:48:16.869Z,7.97
2022-10-11T05:51:20.415Z,5.72
2022-10-11T05:54:24.447Z,7.32
2022-10-11T05:57:28.345Z,7.30
2022-10-11T06:00:31.567Z,6.03
2022-10-11T06:03:35.781Z,6.20
2022-10-11T06:06:38.989Z,5.50
2022-10-11T06:09:43.115Z,5.35
2022-10-11T06:12:46.948Z,4.70
2022-10-11T06:15:50.637Z,5.78
2022-10-11T06:18:55.557Z,6.15
2022-10-11T06:21:58.903Z,7.63
2022-10-11T06:25:02.872Z,7.93
2022-10-11T06:28:06.806Z,7.07
2022-10-11T06:31:10.242Z,6.18
2022-10-11T06:34:13.177Z,6.43
2022-10-11T06:37:16.356Z,6.97
2022-10-11T06:40:35.565Z,5.95
2022-10-11T06:43:38.967Z,3.70
2022-10-11T06:46:43.108Z,5.50
2022-10-11T06:49:46.701Z,4.97
2022-10-11T06:52:50.343Z,4.28
2022-10-11T06:55:54.195Z,4.95
2022-10-11T06:59:00.218Z,4.70
2022-10-11T07:02:03.488Z,3.30
2022-10-11T07:05:06.869Z,4.15
2022-10-11T07:08:09.827Z,4.82
2022-10-11T07:11:18.642Z,4.05
2022-10-11T07:14:22.379Z,4.38
2022-10-11T07:17:26.617Z,4.70
2022-10-11T07:20:29.924Z,4.43
2022-10-11T07:23:34.193Z,4.45
2022-10-11T07:26:39.265Z,5.00
2022-10-11T07:29:42.709Z,4.80
2022-10-11T07:32:46.587Z,5.07
2022-10-11T07:35:50.611Z,5.50
2022-10-11T07:38:54.528Z,4.82
2022-10-11T07:41:57.697Z,5.35
2022-10-11T07:45:01.680Z,5.45
2022-10-11T07:48:05.634Z,5.93
2022-10-11T07:51:15.932Z,5.55
2022-10-11T07:54:19.199Z,4.13
2022-10-11T07:57:23.255Z,4.20
2022-10-11T08:00:26.849Z,3.30
2022-10-11T08:03:31.400Z,3.75
2022-10-11T08:06:37.084Z,3.42
2022-10-11T08:09:40.679Z,3.70
2022-10-11T08:12:44.267Z,4.30
2022-10-11T08:15:47.949Z,4.28
2022-10-11T08:18:51.912Z,3.55
2022-10-11T08:21:55.307Z,4.47
2022-10-11T08:24:59.055Z,4.13
2022-10-11T08:28:02.734Z,4.72
2022-10-11T08:31:06.874Z,3.97
2022-10-11T08:34:10.479Z,3.50
2022-10-11T08:37:14.122Z,4.25
2022-10-11T08:40:22.187Z,3.97
2022-10-11T08:43:40.651Z,4.32
2022-10-11T08:46:49.497Z,6.78
2022-10-11T08:49:53.023Z,6.38
2022-10-11T08:53:05.532Z,7.47
2022-10-11T08:56:12.134Z,8.88
2022-10-11T08:59:37.631Z,9.02
2022-10-11T09:03:08.569Z,7.13
2022-10-11T09:06:24.468Z,7.55
2022-10-11T09:09:58.413Z,7.70
2022-10-11T09:13:17.326Z,7.68
2022-10-11T09:16:53.558Z,7.65
2022-10-11T09:20:06.671Z,7.50
2022-10-11T09:23:34.023Z,5.65
2022-10-11T09:26:56.652Z,5.97
2022-10-11T09:30:12.169Z,6.13
2022-10-11T09:33:24.083Z,8.00
2022-10-11T09:36:31.415Z,5.35
2022-10-11T09:42:39.842Z,4.60
2022-10-11T09:45:49.250Z,4.60
2022-10-11T09:48:56.295Z,3.83
2022-10-11T09:52:03.054Z,3.78
2022-10-11T09:55:07.253Z,4.13
2022-10-11T09:58:31.387Z,5.88
2022-10-11T10:01:35.697Z,6.68
2022-10-11T10:04:56.068Z,8.48
2022-10-11T10:08:05.810Z,13.00
2022-10-11T10:11:11.246Z,13.98
2022-10-11T10:14:27.695Z,14.63
2022-10-11T10:17:30.844Z,11.80
2022-10-11T10:20:37.033Z,12.27
2022-10-11T10:23:40.385Z,13.48
2022-10-11T10:26:43.561Z,17.00
2022-10-11T10:30:02.937Z,15.27
2022-10-11T10:33:12.283Z,17.73
2022-10-11T10:36:29.154Z,16.88
2022-10-11T10:40:11.664Z,19.08
2022-10-11T10:43:18.497Z,18.70
2022-10-11T10:49:54.150Z,19.85
2022-10-11T10:53:19.385Z,18.92
2022-10-11T10:56:35.221Z,13.90
2022-10-11T11:00:07.411Z,13.88
2022-10-11T11:03:34.754Z,10.20
2022-10-11T11:06:44.526Z,12.30
2022-10-11T11:10:13.954Z,10.95
2022-10-11T11:14:07.542Z,10.88
2022-10-11T11:17:41.384Z,13.82
2022-10-11T11:20:54.310Z,15.82
2022-10-11T11:24:09.612Z,23.38
2022-10-11T11:27:45.113Z,19.83
2022-10-11T11:30:54.231Z,25.73
2022-10-11T11:34:16.070Z,35.42
2022-10-11T11:37:44.815Z,38.78
2022-10-11T11:40:57.223Z,27.70
2022-10-11T11:44:07.220Z,22.58
2022-10-11T11:47:31.003Z,17.40
2022-10-11T11:50:40.780Z,18.92
2022-10-11T11:54:22.968Z,17.33
2022-10-11T11:57:42.620Z,18.40
2022-10-11T12:01:08.149Z,20.63
2022-10-11T12:04:39.943Z,18.25
2022-10-11T12:08:09.490Z,17.75
2022-10-11T12:11:30.495Z,13.02
2022-10-11T12:14:41.129Z,14.23
2022-10-11T12:17:57.010Z,12.52
2022-10-11T12:21:27.072Z,13.93
2022-10-11T12:25:01.673Z,16.63
2022-10-11T12:28:39.587Z,14.95
2022-10-11T12:31:46.127Z,14.95
2022-10-11T12:34:50.211Z,15.23
2022-10-11T12:38:03.401Z,15.15
2022-10-11T12:41:17.807Z,16.85
2022-10-11T12:44:23.711Z,14.73
2022-10-11T12:47:49.034Z,15.00
2022-10-11T12:51:39.730Z,15.68
2022-10-11T12:55:30.843Z,16.23
2022-10-11T12:58:42.177Z,16.23
2022-10-11T13:01:57.292Z,15.45
2022-10-11T13:05:32.757Z,13.25
2022-10-11T13:08:40.640Z,13.23
2022-10-11T13:15:17.759Z,12.20
2022-10-11T13:18:23.686Z,13.27
2022-10-11T13:21:35.184Z,11.93
2022-10-11T13:24:41.493Z,12.98
2022-10-11T13:27:45.848Z,10.77
2022-10-11T13:30:53.068Z,9.52
2022-10-11T13:34:00.122Z,11.82
2022-10-11T13:37:03.491Z,11.70
2022-10-11T13:40:08.337Z,11.65
2022-10-11T13:43:14.179Z,11.75
2022-10-11T13:46:24.444Z,12.60
2022-10-11T13:49:40.727Z,11.48
2022-10-11T13:53:00.801Z,12.20
2022-10-11T13:56:08.430Z,8.77
2022-10-11T13:59:22.656Z,9.82
2022-10-11T14:02:27.885Z,11.35
2022-10-11T14:05:42.866Z,9.60
2022-10-11T14:08:52.477Z,9.48
2022-10-11T14:11:56.654Z,9.75
2022-10-11T14:15:01.885Z,12.20
2022-10-11T14:18:37.682Z,10.60
2022-10-11T14:21:46.431Z,6.68
2022-10-11T14:24:49.422Z,7.45
2022-10-11T14:27:52.539Z,8.40
2022-10-11T14:30:56.509Z,9.40
2022-10-11T14:34:01.479Z,9.35
2022-10-11T14:37:05.372Z,7.18
2022-10-11T14:40:19.236Z,9.80
2022-10-11T14:43:22.155Z,10.15
2022-10-11T14:46:27.780Z,9.35
2022-10-11T14:49:32.916Z,8.82
2022-10-11T14:52:35.901Z,11.25
2022-10-11T14:55:41.247Z,9.50
2022-10-11T14:58:44.985Z,10.23
2022-10-11T15:01:54.118Z,10.07
2022-10-11T15:04:57.542Z,11.13
2022-10-11T15:08:00.770Z,9.82
2022-10-11T15:11:04.148Z,6.43
2022-10-11T15:14:11.132Z,5.13
2022-10-11T15:17:14.436Z,4.40
2022-10-11T15:20:30.244Z,4.70
2022-10-11T15:23:41.562Z,6.80
2022-10-11T15:26:45.694Z,4.88
2022-10-11T15:29:49.225Z,4.47
2022-10-11T15:32:53.111Z,4.97
2022-10-11T15:35:56.689Z,3.95
2022-10-11T15:38:59.706Z,4.03
2022-10-11T15:42:02.690Z,5.72
2022-10-11T15:45:06.102Z,5.28
2022-10-11T15:48:14.564Z,4.57
2022-10-11T15:51:18.778Z,4.72
2022-10-11T15:54:22.633Z,5.53
2022-10-11T15:57:25.920Z,5.35
2022-10-11T16:00:30.221Z,5.18
2022-10-11T16:03:35.349Z,4.25
2022-10-11T16:06:38.673Z,5.35
2022-10-11T16:09:42.273Z,4.63
2022-10-11T16:12:46.565Z,6.18
2022-10-11T16:15:50.491Z,5.85
2022-10-11T16:18:53.572Z,5.13
2022-10-11T16:21:57.229Z,5.28
2022-10-11T16:25:01.462Z,5.70
2022-10-11T16:28:05.843Z,5.20
2022-10-11T16:31:17.246Z,4.70
2022-10-11T16:34:20.904Z,3.75
2022-10-11T16:37:24.996Z,3.78
2022-10-11T16:40:30.320Z,3.65
2022-10-11T16:43:33.342Z,3.85
2022-10-11T16:46:36.319Z,4.60
2022-10-11T16:49:40.515Z,4.45
2022-10-11T16:52:46.510Z,4.95
2022-10-11T16:55:49.766Z,7.38
2022-10-11T16:58:54.701Z,5.22
2022-10-11T17:01:59.013Z,4.68
2022-10-11T17:05:03.288Z,4.53
2022-10-11T17:08:07.478Z,5.25
2022-10-11T17:11:10.462Z,5.25
2022-10-11T17:14:14.802Z,4.43
2022-10-11T17:17:18.418Z,4.45
2022-10-11T17:20:22.098Z,3.90
2022-10-11T17:23:25.462Z,4.25
2022-10-11T17:26:29.104Z,5.80
2022-10-11T17:29:33.031Z,4.55
2022-10-11T17:32:36.733Z,2.72
2022-10-11T17:35:40.357Z,4.18
2022-10-11T17:38:44.117Z,4.82
2022-10-11T17:41:47.710Z,4.07
2022-10-11T17:44:51.733Z,3.80
2022-10-11T17:47:55.479Z,3.55
2022-10-11T17:50:59.191Z,3.05
2022-10-11T17:54:02.819Z,2.78
2022-10-11T17:57:05.935Z,2.20
2022-10-11T18:00:10.370Z,2.38
2022-10-11T18:03:14.628Z,1.90
2022-10-11T18:06:17.595Z,2.17
2022-10-11T18:09:22.401Z,2.22
2022-10-11T18:12:26.714Z,1.88
2022-10-11T18:15:32.017Z,1.63
2022-10-11T18:18:36.645Z,1.60
2022-10-11T18:21:41.212Z,1.40
2022-10-11T18:24:44.878Z,2.25
2022-10-11T18:27:49.028Z,1.90
2022-10-11T18:30:53.764Z,1.60
2022-10-11T18:33:58.008Z,1.65
2022-10-11T18:37:01.377Z,2.20
2022-10-11T18:40:05.772Z,2.60
2022-10-11T18:43:09.041Z,1.98
2022-10-11T18:46:15.546Z,1.95
2022-10-11T18:49:19.146Z,1.70
2022-10-11T18:52:23.091Z,1.75
2022-10-11T18:55:26.818Z,1.90
2022-10-11T18:58:32.187Z,1.85
2022-10-11T19:01:39.231Z,1.45
2022-10-11T19:04:43.281Z,1.80
2022-10-11T19:07:46.621Z,1.98
2022-10-11T19:10:50.589Z,2.08
2022-10-11T19:14:09.112Z,1.90
2022-10-11T19:17:13.445Z,2.10
2022-10-11T19:20:17.139Z,2.53
2022-10-11T19:23:21.725Z,2.47
2022-10-11T19:26:32.330Z,1.90
2022-10-11T19:29:35.288Z,2.03
2022-10-11T19:32:38.261Z,2.38
2022-10-11T19:35:42.860Z,2.30
2022-10-11T19:38:49.317Z,1.67
2022-10-11T19:41:53.250Z,2.50
2022-10-11T19:44:56.287Z,2.38
2022-10-11T19:48:00.551Z,2.47
2022-10-11T19:51:13.363Z,2.38
2022-10-11T19:54:17.701Z,2.20
2022-10-11T19:57:21.484Z,2.97
2022-10-11T20:00:24.569Z,1.20
2022-10-11T20:03:28.419Z,1.35
2022-10-11T20:06:38.038Z,1.98
2022-10-11T20:09:42.413Z,1.50
2022-10-11T20:12:46.459Z,1.70
2022-10-11T20:15:49.486Z,1.60
2022-10-11T20:18:59.565Z,1.70
2022-10-11T20:22:02.854Z,2.00
2022-10-11T20:25:07.255Z,1.42
2022-10-11T20:28:10.324Z,2.00
2022-10-11T20:31:22.783Z,2.10
2022-10-11T20:34:27.727Z,2.42
2022-10-11T20:37:31.801Z,2.05
2022-10-11T20:40:35.043Z,2.05
2022-10-11T20:43:38.317Z,1.70
2022-10-11T20:46:41.913Z,1.88
2022-10-11T20:49:45.482Z,2.13
2022-10-11T20:52:49.170Z,2.67
2022-10-11T20:55:52.579Z,2.00
2022-10-11T20:58:56.782Z,1.80
2022-10-11T21:02:00.070Z,1.48
2022-10-11T21:05:03.902Z,3.10
2022-10-11T21:08:07.658Z,3.42
2022-10-11T21:11:11.526Z,4.85
2022-10-11T21:14:15.629Z,5.32
2022-10-11T21:17:18.964Z,5.20
2022-10-11T21:20:22.003Z,4.68
2022-10-11T21:23:25.037Z,4.50
2022-10-11T21:26:31.280Z,4.10
2022-10-11T21:29:35.441Z,3.65
2022-10-11T21:32:39.185Z,3.13
2022-10-11T21:35:42.887Z,3.50
2022-10-11T21:38:46.567Z,3.05
2022-10-11T21:41:49.683Z,2.95
2022-10-11T21:44:53.470Z,2.60
2022-10-11T21:47:56.731Z,3.47
2022-10-11T21:51:00.071Z,2.80
2022-10-11T21:54:03.053Z,2.50
2022-10-11T21:57:06.525Z,2.75
2022-10-11T22:00:11.083Z,3.40
2022-10-11T22:03:17.392Z,2.78
2022-10-11T22:06:20.737Z,3.42
2022-10-11T22:09:24.827Z,2.55
2022-10-11T22:12:28.349Z,3.78
2022-10-11T22:15:35.437Z,3.53
2022-10-11T22:18:39.788Z,3.50
2022-10-11T22:21:45.262Z,4.05
2022-10-11T22:24:49.233Z,3.95
2022-10-11T22:27:53.376Z,4.10
2022-10-11T22:30:57.151Z,4.50
2022-10-11T22:34:02.115Z,5.30
2022-10-11T22:37:05.091Z,4.63
2022-10-11T22:40:09.565Z,3.83
2022-10-11T22:43:13.278Z,6.03
2022-10-11T22:46:17.368Z,5.32
2022-10-11T22:49:20.981Z,5.50
2022-10-11T22:52:24.889Z,4.20
2022-10-11T22:55:28.737Z,3.65
2022-10-11T22:58:32.107Z,5.05
2022-10-11T23:01:35.785Z,4.05
2022-10-11T23:04:39.683Z,3.70
2022-10-11T23:07:43.058Z,4.10
2022-10-11T23:10:47.374Z,5.43
2022-10-11T23:13:51.230Z,4.20
2022-10-11T23:16:54.863Z,3.70
2022-10-11T23:19:58.649Z,4.85
2022-10-11T23:23:01.972Z,8.23
2022-10-11T23:26:08.544Z,6.07
2022-10-11T23:29:11.808Z,4.85
2022-10-11T23:32:15.741Z,4.55
2022-10-11T23:35:19.643Z,4.03
2022-10-11T23:38:23.134Z,5.47
2022-10-11T23:41:30.995Z,5.20
2022-10-11T23:44:33.972Z,4.28
2022-10-11T23:47:37.995Z,5.30
2022-10-11T23:50:42.828Z,3.10
2022-10-11T23:53:46.760Z,3.83
2022-10-11T23:56:49.692Z,4.03
2022-10-11T23:59:53.198Z,5.25
